createdAt,value
2023-01-17T00:00:32.758Z,21.64
2023-01-17T00:01:37.211Z,21.58
2023-01-17T00:02:41.462Z,21.6
2023-01-17T00:03:45.920Z,21.6
2023-01-17T00:04:50.358Z,21.57
2023-01-17T00:05:54.601Z,21.58
2023-01-17T00:06:58.817Z,21.63
2023-01-17T00:08:03.097Z,21.63
2023-01-17T00:09:07.336Z,21.63
2023-01-17T00:10:11.607Z,21.62
2023-01-17T00:11:15.830Z,21.61
2023-01-17T00:12:20.030Z,21.64
2023-01-17T00:13:24.371Z,21.61
2023-01-17T00:14:28.616Z,21.57
2023-01-17T00:15:32.873Z,21.56
2023-01-17T00:16:37.109Z,21.57
2023-01-17T00:17:41.336Z,21.57
2023-01-17T00:18:45.549Z,21.55
2023-01-17T00:19:49.774Z,21.57
2023-01-17T00:20:53.975Z,21.55
2023-01-17T00:21:58.272Z,21.57
2023-01-17T00:23:02.566Z,21.55
2023-01-17T00:24:06.770Z,21.56
2023-01-17T00:25:10.979Z,21.55
2023-01-17T00:26:15.188Z,21.55
2023-01-17T00:27:19.457Z,21.53
2023-01-17T00:28:23.732Z,21.53
2023-01-17T00:29:28.024Z,21.51
2023-01-17T00:30:32.248Z,21.52
2023-01-17T00:31:36.522Z,21.48
2023-01-17T00:32:40.907Z,21.51
2023-01-17T00:33:45.124Z,21.47
2023-01-17T00:34:49.383Z,21.46
2023-01-17T00:35:53.611Z,21.5
2023-01-17T00:36:57.851Z,21.53
2023-01-17T00:38:02.366Z,21.53
2023-01-17T00:39:06.678Z,21.49
2023-01-17T00:40:10.922Z,21.48
2023-01-17T00:41:15.187Z,21.5
2023-01-17T00:42:19.488Z,21.53
2023-01-17T00:43:23.774Z,21.49
2023-01-17T00:44:28.029Z,21.48
2023-01-17T00:45:32.240Z,21.48
2023-01-17T00:46:36.711Z,21.53
2023-01-17T00:47:41.134Z,21.53
2023-01-17T00:48:45.365Z,21.53
2023-01-17T00:49:49.621Z,21.53
2023-01-17T00:50:53.856Z,21.55
2023-01-17T00:51:58.149Z,21.55
2023-01-17T00:53:02.410Z,21.53
2023-01-17T00:54:06.642Z,21.54
2023-01-17T00:55:10.869Z,21.56
2023-01-17T00:56:15.115Z,21.52
2023-01-17T00:57:19.382Z,21.55
2023-01-17T00:58:23.587Z,21.53
2023-01-17T00:59:27.792Z,21.5
2023-01-17T01:00:32.081Z,21.49
2023-01-17T01:01:36.754Z,21.5
2023-01-17T01:02:41.760Z,21.51
2023-01-17T01:03:46.270Z,21.52
2023-01-17T01:04:50.509Z,21.49
2023-01-17T01:05:54.746Z,21.51
2023-01-17T01:06:59.024Z,21.5
2023-01-17T01:08:03.257Z,21.49
2023-01-17T01:09:07.465Z,21.5
2023-01-17T01:10:11.946Z,21.47
2023-01-17T01:11:16.208Z,21.43
2023-01-17T01:12:20.419Z,21.41
2023-01-17T01:13:24.731Z,21.44
2023-01-17T01:14:28.965Z,21.44
2023-01-17T01:15:33.171Z,21.44
2023-01-17T01:16:38.016Z,21.41
2023-01-17T01:17:42.340Z,21.4
2023-01-17T01:18:46.535Z,21.41
2023-01-17T01:19:50.765Z,21.43
2023-01-17T01:20:56.035Z,21.42
2023-01-17T01:22:00.256Z,21.39
2023-01-17T01:23:04.494Z,21.41
2023-01-17T01:24:08.748Z,21.42
2023-01-17T01:25:13.008Z,21.44
2023-01-17T01:26:17.245Z,21.45
2023-01-17T01:27:21.505Z,21.42
2023-01-17T01:28:25.759Z,21.42
2023-01-17T01:29:30.010Z,21.41
2023-01-17T01:30:34.276Z,21.41
2023-01-17T01:31:38.609Z,21.42
2023-01-17T01:32:43.000Z,21.42
2023-01-17T01:33:47.235Z,21.38
2023-01-17T01:34:51.435Z,21.38
2023-01-17T01:35:55.679Z,21.37
2023-01-17T01:36:59.923Z,21.35
2023-01-17T01:38:04.160Z,21.31
2023-01-17T01:39:08.439Z,21.32
2023-01-17T01:40:12.706Z,21.34
2023-01-17T01:41:16.943Z,21.33
2023-01-17T01:42:21.231Z,21.35
2023-01-17T01:43:25.437Z,21.34
2023-01-17T01:44:29.721Z,21.31
2023-01-17T01:45:33.957Z,21.34
2023-01-17T01:46:38.399Z,21.31
2023-01-17T01:47:42.745Z,21.3
2023-01-17T01:48:46.962Z,21.29
2023-01-17T01:49:51.222Z,21.3
2023-01-17T01:50:55.515Z,21.29
2023-01-17T01:51:59.753Z,21.32
2023-01-17T01:53:04.005Z,21.3
2023-01-17T01:54:08.262Z,21.3
2023-01-17T01:55:12.610Z,21.3
2023-01-17T01:56:16.828Z,21.28
2023-01-17T01:57:21.068Z,21.28
2023-01-17T01:58:26.340Z,21.26
2023-01-17T01:59:30.587Z,21.23
2023-01-17T02:00:34.918Z,21.23
2023-01-17T02:01:39.531Z,21.22
2023-01-17T02:02:44.297Z,21.23
2023-01-17T02:03:48.535Z,21.23
2023-01-17T02:04:52.916Z,21.23
2023-01-17T02:05:57.174Z,21.23
2023-01-17T02:07:01.419Z,21.26
2023-01-17T02:08:05.627Z,21.3
2023-01-17T02:09:09.863Z,21.27
2023-01-17T02:10:14.102Z,21.23
2023-01-17T02:11:18.376Z,21.23
2023-01-17T02:12:22.584Z,21.27
2023-01-17T02:13:26.855Z,21.3
2023-01-17T02:14:31.119Z,21.28
2023-01-17T02:15:35.365Z,21.24
2023-01-17T02:16:39.700Z,21.22
2023-01-17T02:17:44.036Z,21.21
2023-01-17T02:18:48.278Z,21.22
2023-01-17T02:19:52.500Z,21.21
2023-01-17T02:20:56.711Z,21.23
2023-01-17T02:22:00.966Z,21.21
2023-01-17T02:23:05.210Z,21.19
2023-01-17T02:24:09.484Z,21.19
2023-01-17T02:25:13.784Z,21.18
2023-01-17T02:26:18.138Z,21.18
2023-01-17T02:27:22.386Z,21.19
2023-01-17T02:28:26.657Z,21.2
2023-01-17T02:29:30.881Z,21.2
2023-01-17T02:30:35.173Z,21.2
2023-01-17T02:31:39.458Z,21.23
2023-01-17T02:32:43.885Z,21.2
2023-01-17T02:33:48.114Z,21.23
2023-01-17T02:34:52.353Z,21.19
2023-01-17T02:35:56.604Z,21.25
2023-01-17T02:37:01.366Z,21.24
2023-01-17T02:38:05.621Z,21.21
2023-01-17T02:39:09.874Z,21.2
2023-01-17T02:40:14.128Z,21.19
2023-01-17T02:41:18.449Z,21.18
2023-01-17T02:42:22.670Z,21.16
2023-01-17T02:43:26.899Z,21.17
2023-01-17T02:44:31.096Z,21.18
2023-01-17T02:45:35.353Z,21.16
2023-01-17T02:46:39.723Z,21.15
2023-01-17T02:47:44.011Z,21.18
2023-01-17T02:48:48.281Z,21.21
2023-01-17T02:49:52.525Z,21.25
2023-01-17T02:50:56.756Z,21.26
2023-01-17T02:52:00.983Z,21.22
2023-01-17T02:53:05.222Z,21.24
2023-01-17T02:54:09.436Z,21.23
2023-01-17T02:55:13.714Z,21.21
2023-01-17T02:56:17.989Z,21.18
2023-01-17T02:57:22.221Z,21.18
2023-01-17T02:58:26.461Z,21.18
2023-01-17T02:59:30.722Z,21.18
2023-01-17T03:00:34.980Z,21.15
2023-01-17T03:01:39.271Z,21.14
2023-01-17T03:02:43.904Z,21.16
2023-01-17T03:03:48.210Z,21.16
2023-01-17T03:04:52.470Z,21.16
2023-01-17T03:05:56.680Z,21.19
2023-01-17T03:07:00.934Z,21.2
2023-01-17T03:08:05.179Z,21.18
2023-01-17T03:09:09.448Z,21.14
2023-01-17T03:10:13.682Z,21.14
2023-01-17T03:11:17.914Z,21.13
2023-01-17T03:12:22.141Z,21.12
2023-01-17T03:13:27.412Z,21.13
2023-01-17T03:14:31.673Z,21.12
2023-01-17T03:15:35.904Z,21.11
2023-01-17T03:16:40.157Z,21.14
2023-01-17T03:17:44.520Z,21.18
2023-01-17T03:18:48.771Z,21.15
2023-01-17T03:19:52.990Z,21.15
2023-01-17T03:20:57.243Z,21.14
2023-01-17T03:22:01.486Z,21.11
2023-01-17T03:23:05.725Z,21.1
2023-01-17T03:24:09.946Z,21.1
2023-01-17T03:25:14.176Z,21.12
2023-01-17T03:26:18.423Z,21.11
2023-01-17T03:27:22.678Z,21.14
2023-01-17T03:28:26.899Z,21.14
2023-01-17T03:29:31.113Z,21.15
2023-01-17T03:30:35.342Z,21.15
2023-01-17T03:31:39.716Z,21.14
2023-01-17T03:32:43.953Z,21.11
2023-01-17T03:33:48.169Z,21.12
2023-01-17T03:34:54.674Z,21.12
2023-01-17T03:35:58.911Z,21.12
2023-01-17T03:37:03.178Z,21.1
2023-01-17T03:38:07.461Z,21.1
2023-01-17T03:39:12.013Z,21.1
2023-01-17T03:40:16.254Z,21.12
2023-01-17T03:41:20.455Z,21.1
2023-01-17T03:42:24.711Z,21.1
2023-01-17T03:43:28.948Z,21.12
2023-01-17T03:44:33.150Z,21.1
2023-01-17T03:45:37.410Z,21.13
2023-01-17T03:46:41.749Z,21.13
2023-01-17T03:47:45.970Z,21.14
2023-01-17T03:48:50.312Z,21.12
2023-01-17T03:49:54.572Z,21.14
2023-01-17T03:50:59.854Z,21.15
2023-01-17T03:52:04.174Z,21.13
2023-01-17T03:53:08.425Z,21.12
2023-01-17T03:54:12.654Z,21.08
2023-01-17T03:55:16.911Z,21.08
2023-01-17T03:56:21.140Z,21.09
2023-01-17T03:57:25.379Z,21.11
2023-01-17T03:58:29.578Z,21.1
2023-01-17T03:59:33.783Z,21.08
2023-01-17T04:00:38.044Z,21.08
2023-01-17T04:01:42.385Z,21.07
2023-01-17T04:02:46.993Z,21.07
2023-01-17T04:03:51.597Z,21.08
2023-01-17T04:04:55.801Z,21.13
2023-01-17T04:06:00.100Z,21.09
2023-01-17T04:07:04.325Z,21.09
2023-01-17T04:08:08.607Z,21.08
2023-01-17T04:09:12.829Z,21.05
2023-01-17T04:10:17.070Z,21.06
2023-01-17T04:11:21.317Z,21.04
2023-01-17T04:12:25.535Z,21.06
2023-01-17T04:13:29.816Z,21.05
2023-01-17T04:14:34.091Z,21.05
2023-01-17T04:15:38.369Z,21.04
2023-01-17T04:16:42.601Z,21.03
2023-01-17T04:17:47.046Z,21.03
2023-01-17T04:18:51.262Z,21.03
2023-01-17T04:19:55.494Z,21.05
2023-01-17T04:20:59.768Z,21.04
2023-01-17T04:22:04.035Z,21.04
2023-01-17T04:23:08.250Z,21.07
2023-01-17T04:24:12.491Z,21.09
2023-01-17T04:25:18.686Z,21.06
2023-01-17T04:26:22.957Z,21.07
2023-01-17T04:27:27.178Z,21.05
2023-01-17T04:28:31.373Z,21.04
2023-01-17T04:29:35.595Z,21.04
2023-01-17T04:30:39.941Z,21.04
2023-01-17T04:31:44.374Z,21.05
2023-01-17T04:32:48.926Z,21.04
2023-01-17T04:33:53.149Z,21.06
2023-01-17T04:34:57.397Z,21.03
2023-01-17T04:36:01.638Z,21.05
2023-01-17T04:37:05.874Z,21.05
2023-01-17T04:38:10.121Z,21.07
2023-01-17T04:39:14.355Z,21.08
2023-01-17T04:40:18.592Z,21.07
2023-01-17T04:41:22.871Z,21.07
2023-01-17T04:42:27.081Z,21.07
2023-01-17T04:43:31.381Z,21.07
2023-01-17T04:44:35.583Z,21.08
2023-01-17T04:45:39.805Z,21.09
2023-01-17T04:46:44.006Z,21.1
2023-01-17T04:47:48.226Z,21.13
2023-01-17T04:48:52.499Z,21.12
2023-01-17T04:49:56.733Z,21.1
2023-01-17T04:51:00.981Z,21.09
2023-01-17T04:52:05.232Z,21.07
2023-01-17T04:53:09.468Z,21.06
2023-01-17T04:54:13.695Z,21.07
2023-01-17T04:55:17.944Z,21.06
2023-01-17T04:56:22.247Z,21.11
2023-01-17T04:57:26.563Z,21.18
2023-01-17T04:58:30.818Z,21.22
2023-01-17T04:59:35.027Z,21.21
2023-01-17T05:00:39.261Z,21.19
2023-01-17T05:01:43.512Z,21.12
2023-01-17T05:02:47.903Z,21.08
2023-01-17T05:03:52.349Z,21.04
2023-01-17T05:04:56.584Z,21.03
2023-01-17T05:06:01.855Z,21.11
2023-01-17T05:07:06.130Z,21.13
2023-01-17T05:08:10.451Z,21.21
2023-01-17T05:09:14.656Z,21.26
2023-01-17T05:10:18.911Z,21.32
2023-01-17T05:11:23.172Z,21.37
2023-01-17T05:12:27.434Z,21.43
2023-01-17T05:13:31.657Z,21.52
2023-01-17T05:14:35.915Z,21.62
2023-01-17T05:15:40.218Z,21.73
2023-01-17T05:16:44.625Z,21.82
2023-01-17T05:17:48.906Z,21.9
2023-01-17T05:18:53.162Z,21.99
2023-01-17T05:19:57.391Z,22.03
2023-01-17T05:21:01.587Z,22.1
2023-01-17T05:22:05.863Z,22.14
2023-01-17T05:23:10.130Z,22.16
2023-01-17T05:24:14.384Z,22.19
2023-01-17T05:25:18.653Z,22.25
2023-01-17T05:26:22.989Z,22.28
2023-01-17T05:27:27.300Z,22.32
2023-01-17T05:28:31.571Z,22.35
2023-01-17T05:29:35.783Z,22.37
2023-01-17T05:30:40.087Z,22.37
2023-01-17T05:31:44.598Z,22.39
2023-01-17T05:32:48.851Z,22.41
2023-01-17T05:33:53.099Z,22.41
2023-01-17T05:34:57.344Z,22.44
2023-01-17T05:36:01.556Z,22.46
2023-01-17T05:37:05.784Z,22.47
2023-01-17T05:38:10.026Z,22.47
2023-01-17T05:39:14.259Z,22.48
2023-01-17T05:40:19.509Z,22.48
2023-01-17T05:41:23.795Z,22.52
2023-01-17T05:42:28.072Z,22.53
2023-01-17T05:43:32.314Z,22.55
2023-01-17T05:44:36.567Z,22.54
2023-01-17T05:45:40.774Z,22.53
2023-01-17T05:46:45.014Z,22.51
2023-01-17T05:47:49.254Z,22.48
2023-01-17T05:48:53.465Z,22.48
2023-01-17T05:49:57.720Z,22.45
2023-01-17T05:51:01.976Z,22.42
2023-01-17T05:52:06.246Z,22.41
2023-01-17T05:53:10.505Z,22.37
2023-01-17T05:54:14.713Z,22.34
2023-01-17T05:55:18.930Z,22.34
2023-01-17T05:56:23.155Z,22.31
2023-01-17T05:57:27.413Z,22.27
2023-01-17T05:58:31.671Z,22.24
2023-01-17T05:59:37.232Z,22.22
2023-01-17T06:00:41.816Z,22.19
2023-01-17T06:01:46.042Z,22.16
2023-01-17T06:02:50.324Z,22.14
2023-01-17T06:03:54.710Z,22.11
2023-01-17T06:04:58.940Z,22.09
2023-01-17T06:06:06.382Z,22.06
2023-01-17T06:07:10.610Z,22.04
2023-01-17T06:08:14.879Z,22.02
2023-01-17T06:09:19.091Z,21.99
2023-01-17T06:10:23.344Z,21.98
2023-01-17T06:11:27.605Z,21.96
2023-01-17T06:12:31.862Z,21.94
2023-01-17T06:13:36.177Z,21.92
2023-01-17T06:14:40.431Z,21.89
2023-01-17T06:15:44.790Z,21.87
2023-01-17T06:16:49.147Z,21.85
2023-01-17T06:17:53.673Z,21.83
2023-01-17T06:18:57.886Z,21.82
2023-01-17T06:20:02.092Z,21.8
2023-01-17T06:21:06.351Z,21.78
2023-01-17T06:22:10.583Z,21.76
2023-01-17T06:23:14.880Z,21.73
2023-01-17T06:24:19.158Z,21.72
2023-01-17T06:25:23.395Z,21.7
2023-01-17T06:26:27.642Z,21.69
2023-01-17T06:27:31.875Z,21.67
2023-01-17T06:28:36.120Z,21.65
2023-01-17T06:29:40.389Z,21.64
2023-01-17T06:30:44.619Z,21.64
2023-01-17T06:31:48.861Z,21.62
2023-01-17T06:32:53.107Z,21.63
2023-01-17T06:33:57.376Z,21.63
2023-01-17T06:35:01.605Z,21.63
2023-01-17T06:36:05.834Z,21.62
2023-01-17T06:37:10.076Z,21.63
2023-01-17T06:38:14.309Z,21.66
2023-01-17T06:39:18.568Z,21.71
2023-01-17T06:40:22.777Z,21.77
2023-01-17T06:41:26.989Z,21.85
2023-01-17T06:42:31.213Z,21.95
2023-01-17T06:43:35.477Z,22.03
2023-01-17T06:44:39.707Z,22.11
2023-01-17T06:45:44.025Z,22.17
2023-01-17T06:46:48.500Z,22.25
2023-01-17T06:47:52.920Z,22.31
2023-01-17T06:48:57.117Z,22.35
2023-01-17T06:50:01.356Z,22.4
2023-01-17T06:51:05.638Z,22.42
2023-01-17T06:52:09.863Z,22.43
2023-01-17T06:53:14.058Z,22.43
2023-01-17T06:54:18.280Z,22.42
2023-01-17T06:55:22.505Z,22.41
2023-01-17T06:56:26.772Z,22.4
2023-01-17T06:57:31.018Z,22.39
2023-01-17T06:58:35.231Z,22.37
2023-01-17T06:59:39.488Z,22.36
2023-01-17T07:00:43.758Z,22.32
2023-01-17T07:01:48.211Z,22.32
2023-01-17T07:02:52.560Z,22.31
2023-01-17T07:03:56.806Z,22.3
2023-01-17T07:05:01.168Z,22.27
2023-01-17T07:06:05.416Z,22.25
2023-01-17T07:07:09.679Z,22.23
2023-01-17T07:08:14.238Z,22.2
2023-01-17T07:09:18.472Z,22.18
2023-01-17T07:10:22.726Z,22.16
2023-01-17T07:11:27.012Z,22.15
2023-01-17T07:12:31.255Z,22.12
2023-01-17T07:13:36.398Z,22.11
2023-01-17T07:14:40.735Z,22.09
2023-01-17T07:15:45.002Z,22.07
2023-01-17T07:16:49.344Z,22.04
2023-01-17T07:17:53.645Z,22.02
2023-01-17T07:18:57.871Z,22.01
2023-01-17T07:20:02.115Z,21.99
2023-01-17T07:21:06.339Z,21.97
2023-01-17T07:22:10.565Z,21.96
2023-01-17T07:23:14.820Z,21.93
2023-01-17T07:24:19.048Z,21.92
2023-01-17T07:25:23.305Z,21.9
2023-01-17T07:26:30.167Z,21.89
2023-01-17T07:27:34.395Z,21.87
2023-01-17T07:28:38.636Z,21.85
2023-01-17T07:29:43.047Z,21.83
2023-01-17T07:30:47.459Z,21.82
2023-01-17T07:31:51.711Z,21.79
2023-01-17T07:32:56.007Z,21.79
2023-01-17T07:34:00.257Z,21.77
2023-01-17T07:35:04.489Z,21.76
2023-01-17T07:36:08.755Z,21.74
2023-01-17T07:37:15.072Z,21.73
2023-01-17T07:38:19.392Z,21.72
2023-01-17T07:39:23.592Z,21.71
2023-01-17T07:40:27.818Z,21.7
2023-01-17T07:41:32.100Z,21.7
2023-01-17T07:42:36.326Z,21.72
2023-01-17T07:43:40.550Z,21.74
2023-01-17T07:44:44.794Z,21.79
2023-01-17T07:45:49.014Z,21.85
2023-01-17T07:46:53.342Z,21.92
2023-01-17T07:47:57.737Z,22
2023-01-17T07:49:01.977Z,22.07
2023-01-17T07:50:06.182Z,22.15
2023-01-17T07:51:10.468Z,22.22
2023-01-17T07:52:16.354Z,22.27
2023-01-17T07:53:22.269Z,22.32
2023-01-17T07:54:26.553Z,22.36
2023-01-17T07:55:30.778Z,22.37
2023-01-17T07:56:35.000Z,22.39
2023-01-17T07:57:39.218Z,22.41
2023-01-17T07:58:43.467Z,22.41
2023-01-17T07:59:47.837Z,22.4
2023-01-17T08:00:52.248Z,22.39
2023-01-17T08:01:56.911Z,22.37
2023-01-17T08:03:01.564Z,22.36
2023-01-17T08:04:05.832Z,22.35
2023-01-17T08:05:10.219Z,22.33
2023-01-17T08:06:14.457Z,22.33
2023-01-17T08:07:18.682Z,22.3
2023-01-17T08:08:22.955Z,22.3
2023-01-17T08:09:27.186Z,22.25
2023-01-17T08:10:31.440Z,22.24
2023-01-17T08:11:35.679Z,22.22
2023-01-17T08:12:39.964Z,22.19
2023-01-17T08:13:44.180Z,22.17
2023-01-17T08:14:48.577Z,22.16
2023-01-17T08:15:52.792Z,22.13
2023-01-17T08:16:57.019Z,22.12
2023-01-17T08:18:01.245Z,22.11
2023-01-17T08:19:07.802Z,22.09
2023-01-17T08:20:12.085Z,22.08
2023-01-17T08:21:16.332Z,22.06
2023-01-17T08:22:20.627Z,22.03
2023-01-17T08:23:24.855Z,22.01
2023-01-17T08:24:29.075Z,21.99
2023-01-17T08:25:33.293Z,21.98
2023-01-17T08:26:37.560Z,21.97
2023-01-17T08:27:41.828Z,21.94
2023-01-17T08:28:46.055Z,21.92
2023-01-17T08:29:50.292Z,21.92
2023-01-17T08:30:54.486Z,21.91
2023-01-17T08:31:58.734Z,21.88
2023-01-17T08:33:02.971Z,21.87
2023-01-17T08:34:07.201Z,21.85
2023-01-17T08:35:11.411Z,21.84
2023-01-17T08:36:15.645Z,21.82
2023-01-17T08:37:19.946Z,21.81
2023-01-17T08:38:24.185Z,21.79
2023-01-17T08:39:28.426Z,21.78
2023-01-17T08:40:32.639Z,21.76
2023-01-17T08:41:36.901Z,21.76
2023-01-17T08:42:41.154Z,21.74
2023-01-17T08:43:45.353Z,21.73
2023-01-17T08:44:49.588Z,21.72
2023-01-17T08:45:53.851Z,21.7
2023-01-17T08:46:58.593Z,21.69
2023-01-17T08:48:02.865Z,21.67
2023-01-17T08:49:07.228Z,21.65
2023-01-17T08:50:11.598Z,21.66
2023-01-17T08:51:15.831Z,21.66
2023-01-17T08:52:20.055Z,21.66
2023-01-17T08:53:24.290Z,21.67
2023-01-17T08:54:28.534Z,21.65
2023-01-17T08:55:32.784Z,21.64
2023-01-17T08:56:37.008Z,21.65
2023-01-17T08:57:41.228Z,21.64
2023-01-17T08:58:45.465Z,21.63
2023-01-17T08:59:49.714Z,21.64
2023-01-17T09:00:54.055Z,21.66
2023-01-17T09:01:58.710Z,21.65
2023-01-17T09:03:03.305Z,21.64
2023-01-17T09:04:07.547Z,21.66
2023-01-17T09:05:11.943Z,21.72
2023-01-17T09:06:16.217Z,21.77
2023-01-17T09:07:20.489Z,21.86
2023-01-17T09:08:24.732Z,21.93
2023-01-17T09:09:28.996Z,22.04
2023-01-17T09:10:33.221Z,22.14
2023-01-17T09:11:37.430Z,22.21
2023-01-17T09:12:41.744Z,22.27
2023-01-17T09:13:45.971Z,22.31
2023-01-17T09:14:50.233Z,22.34
2023-01-17T09:15:54.506Z,22.36
2023-01-17T09:16:58.707Z,22.39
2023-01-17T09:18:02.910Z,22.38
2023-01-17T09:19:07.155Z,22.38
2023-01-17T09:20:11.456Z,22.39
2023-01-17T09:21:15.755Z,22.39
2023-01-17T09:22:20.114Z,22.37
2023-01-17T09:23:24.399Z,22.37
2023-01-17T09:24:28.627Z,22.34
2023-01-17T09:25:32.869Z,22.34
2023-01-17T09:26:37.159Z,22.32
2023-01-17T09:27:41.421Z,22.3
2023-01-17T09:28:45.745Z,22.28
2023-01-17T09:29:49.983Z,22.24
2023-01-17T09:30:54.257Z,22.22
2023-01-17T09:31:58.587Z,22.21
2023-01-17T09:33:02.828Z,22.19
2023-01-17T09:34:07.105Z,22.17
2023-01-17T09:35:11.360Z,22.16
2023-01-17T09:36:15.682Z,22.14
2023-01-17T09:37:19.895Z,22.13
2023-01-17T09:38:26.700Z,22.1
2023-01-17T09:39:30.982Z,22.1
2023-01-17T09:40:35.247Z,22.08
2023-01-17T09:41:39.485Z,22.06
2023-01-17T09:42:43.695Z,22.04
2023-01-17T09:43:47.937Z,22.02
2023-01-17T09:44:52.231Z,22.01
2023-01-17T09:45:56.606Z,21.99
2023-01-17T09:47:01.022Z,21.96
2023-01-17T09:48:05.367Z,21.95
2023-01-17T09:49:09.624Z,21.94
2023-01-17T09:50:13.911Z,21.92
2023-01-17T09:51:18.162Z,21.91
2023-01-17T09:52:22.398Z,21.89
2023-01-17T09:53:26.670Z,21.88
2023-01-17T09:54:33.846Z,21.87
2023-01-17T09:55:38.104Z,21.85
2023-01-17T09:56:42.356Z,21.84
2023-01-17T09:57:46.551Z,21.83
2023-01-17T09:58:50.787Z,21.81
2023-01-17T10:00:02.811Z,21.79
2023-01-17T10:01:07.687Z,21.79
2023-01-17T10:02:12.507Z,21.78
2023-01-17T10:03:17.577Z,21.76
2023-01-17T10:04:23.272Z,21.74
2023-01-17T10:05:27.677Z,21.73
2023-01-17T10:06:31.987Z,21.72
2023-01-17T10:07:36.216Z,21.72
2023-01-17T10:08:40.424Z,21.72
2023-01-17T10:09:44.637Z,21.7
2023-01-17T10:10:48.913Z,21.69
2023-01-17T10:11:53.149Z,21.69
2023-01-17T10:12:57.516Z,21.66
2023-01-17T10:14:01.751Z,21.65
2023-01-17T10:15:06.036Z,21.66
2023-01-17T10:16:10.286Z,21.67
2023-01-17T10:17:14.528Z,21.65
2023-01-17T10:18:29.055Z,21.65
2023-01-17T10:19:34.018Z,21.66
2023-01-17T10:20:40.514Z,21.66
2023-01-17T10:21:44.761Z,21.66
2023-01-17T10:22:48.980Z,21.67
2023-01-17T10:23:53.199Z,21.68
2023-01-17T10:24:57.494Z,21.69
2023-01-17T10:26:01.857Z,21.67
2023-01-17T10:27:06.139Z,21.69
2023-01-17T10:28:10.550Z,21.69
2023-01-17T10:29:14.813Z,21.72
2023-01-17T10:30:19.041Z,21.77
2023-01-17T10:31:23.354Z,21.83
2023-01-17T10:32:27.646Z,21.91
2023-01-17T10:33:31.952Z,21.99
2023-01-17T10:34:36.295Z,22.07
2023-01-17T10:35:40.513Z,22.15
2023-01-17T10:36:44.702Z,22.21
2023-01-17T10:37:48.909Z,22.25
2023-01-17T10:38:53.154Z,22.28
2023-01-17T10:39:57.434Z,22.3
2023-01-17T10:41:01.739Z,22.33
2023-01-17T10:42:06.010Z,22.33
2023-01-17T10:43:10.303Z,22.34
2023-01-17T10:44:14.534Z,22.33
2023-01-17T10:45:18.799Z,22.33
2023-01-17T10:46:23.198Z,22.27
2023-01-17T10:47:27.649Z,22.28
2023-01-17T10:48:31.897Z,22.28
2023-01-17T10:49:36.144Z,22.29
2023-01-17T10:50:40.382Z,22.3
2023-01-17T10:51:44.621Z,22.24
2023-01-17T10:52:48.828Z,22.16
2023-01-17T10:53:53.062Z,22.09
2023-01-17T10:54:57.319Z,22.03
2023-01-17T10:56:01.717Z,21.96
2023-01-17T10:57:05.993Z,21.92
2023-01-17T10:58:10.212Z,21.85
2023-01-17T10:59:14.460Z,21.81
2023-01-17T11:00:18.692Z,21.78
2023-01-17T11:01:23.025Z,21.76
2023-01-17T11:02:27.884Z,21.7
2023-01-17T11:03:32.504Z,21.7
2023-01-17T11:04:36.758Z,21.65
2023-01-17T11:05:40.997Z,21.6
2023-01-17T11:06:57.517Z,21.59
2023-01-17T11:08:02.006Z,21.53
2023-01-17T11:09:06.489Z,21.54
2023-01-17T11:10:10.716Z,21.57
2023-01-17T11:11:14.942Z,21.58
2023-01-17T11:12:19.166Z,21.61
2023-01-17T11:13:23.416Z,21.6
2023-01-17T11:14:27.641Z,21.6
2023-01-17T11:15:31.886Z,21.61
2023-01-17T11:16:36.263Z,21.63
2023-01-17T11:17:40.597Z,21.62
2023-01-17T11:18:44.820Z,21.64
2023-01-17T11:19:49.040Z,21.63
2023-01-17T11:20:53.281Z,21.65
2023-01-17T11:21:57.569Z,21.63
2023-01-17T11:23:01.834Z,21.62
2023-01-17T11:24:06.062Z,21.63
2023-01-17T11:25:10.300Z,21.63
2023-01-17T11:26:14.581Z,21.63
2023-01-17T11:27:18.824Z,21.62
2023-01-17T11:28:23.057Z,21.6
2023-01-17T11:29:27.316Z,21.6
2023-01-17T11:30:31.539Z,21.6
2023-01-17T11:31:35.779Z,21.6
2023-01-17T11:32:39.990Z,21.59
2023-01-17T11:33:44.235Z,21.59
2023-01-17T11:34:48.694Z,21.59
2023-01-17T11:35:52.959Z,21.6
2023-01-17T11:36:57.450Z,21.59
2023-01-17T11:38:01.693Z,21.59
2023-01-17T11:39:05.936Z,21.6
2023-01-17T11:40:10.233Z,21.58
2023-01-17T11:41:16.828Z,21.57
2023-01-17T11:42:21.113Z,21.54
2023-01-17T11:43:25.368Z,21.55
2023-01-17T11:44:29.673Z,21.55
2023-01-17T11:45:33.916Z,21.56
2023-01-17T11:46:38.215Z,21.54
2023-01-17T11:47:42.670Z,21.52
2023-01-17T11:48:46.906Z,21.53
2023-01-17T11:49:51.097Z,21.53
2023-01-17T11:50:55.359Z,21.51
2023-01-17T11:51:59.605Z,21.52
2023-01-17T11:53:03.864Z,21.53
2023-01-17T11:54:08.044Z,21.55
2023-01-17T11:55:12.300Z,21.57
2023-01-17T11:56:16.552Z,21.63
2023-01-17T11:57:20.755Z,21.7
2023-01-17T11:58:25.050Z,21.78
2023-01-17T11:59:29.307Z,21.87
2023-01-17T12:00:33.557Z,21.94
2023-01-17T12:01:37.790Z,22.02
2023-01-17T12:02:42.068Z,22.11
2023-01-17T12:03:46.344Z,22.14
2023-01-17T12:04:50.724Z,22.17
2023-01-17T12:05:55.064Z,22.18
2023-01-17T12:06:59.385Z,22.18
2023-01-17T12:08:03.625Z,22.19
2023-01-17T12:09:07.851Z,22.2
2023-01-17T12:10:12.333Z,22.18
2023-01-17T12:11:16.662Z,22.15
2023-01-17T12:12:20.906Z,22.13
2023-01-17T12:13:25.122Z,22.13
2023-01-17T12:14:29.404Z,22.11
2023-01-17T12:15:33.676Z,22.09
2023-01-17T12:16:37.897Z,22.08
2023-01-17T12:17:42.172Z,22.06
2023-01-17T12:18:46.417Z,22.03
2023-01-17T12:19:50.645Z,22.02
2023-01-17T12:20:54.862Z,22
2023-01-17T12:21:59.102Z,21.97
2023-01-17T12:23:03.368Z,21.94
2023-01-17T12:24:07.605Z,21.95
2023-01-17T12:25:12.191Z,21.94
2023-01-17T12:26:16.461Z,21.92
2023-01-17T12:27:20.692Z,21.92
2023-01-17T12:28:24.977Z,21.9
2023-01-17T12:29:29.245Z,21.89
2023-01-17T12:30:33.480Z,21.87
2023-01-17T12:31:37.813Z,21.85
2023-01-17T12:32:42.227Z,21.83
2023-01-17T12:33:46.491Z,21.82
2023-01-17T12:34:50.849Z,21.81
2023-01-17T12:35:55.375Z,21.81
2023-01-17T12:36:59.672Z,21.79
2023-01-17T12:38:05.046Z,21.78
2023-01-17T12:39:09.702Z,21.77
2023-01-17T12:40:13.998Z,21.77
2023-01-17T12:41:18.242Z,21.75
2023-01-17T12:42:22.509Z,21.74
2023-01-17T12:43:26.726Z,21.73
2023-01-17T12:44:30.939Z,21.72
2023-01-17T12:45:35.207Z,21.73
2023-01-17T12:46:39.515Z,21.72
2023-01-17T12:47:43.940Z,21.72
2023-01-17T12:48:48.207Z,21.71
2023-01-17T12:49:52.432Z,21.69
2023-01-17T12:50:56.708Z,21.68
2023-01-17T12:52:03.952Z,21.67
2023-01-17T12:53:08.199Z,21.69
2023-01-17T12:54:12.424Z,21.67
2023-01-17T12:55:16.679Z,21.67
2023-01-17T12:56:21.007Z,21.67
2023-01-17T12:57:25.251Z,21.65
2023-01-17T12:58:29.454Z,21.65
2023-01-17T12:59:33.687Z,21.66
2023-01-17T13:00:37.985Z,21.65
2023-01-17T13:01:42.591Z,21.64
2023-01-17T13:02:47.208Z,21.64
2023-01-17T13:03:51.493Z,21.6
2023-01-17T13:04:59.147Z,21.61
2023-01-17T13:06:03.510Z,21.63
2023-01-17T13:07:07.798Z,21.64
2023-01-17T13:08:12.024Z,21.64
2023-01-17T13:09:19.519Z,21.64
2023-01-17T13:10:23.732Z,21.63
2023-01-17T13:11:27.994Z,21.59
2023-01-17T13:12:32.250Z,21.59
2023-01-17T13:13:36.466Z,21.52
2023-01-17T13:14:40.699Z,21.49
2023-01-17T13:15:44.949Z,21.49
2023-01-17T13:16:49.192Z,21.48
2023-01-17T13:17:53.419Z,21.49
2023-01-17T13:18:57.809Z,21.49
2023-01-17T13:20:02.033Z,21.5
2023-01-17T13:21:06.292Z,21.51
2023-01-17T13:22:10.743Z,21.57
2023-01-17T13:23:14.947Z,21.63
2023-01-17T13:24:19.155Z,21.67
2023-01-17T13:25:26.510Z,21.74
2023-01-17T13:26:30.742Z,21.82
2023-01-17T13:27:34.993Z,21.9
2023-01-17T13:28:39.274Z,21.98
2023-01-17T13:29:43.498Z,22.04
2023-01-17T13:30:47.733Z,22.09
2023-01-17T13:31:52.058Z,22.15
2023-01-17T13:32:56.432Z,22.2
2023-01-17T13:34:00.706Z,22.23
2023-01-17T13:35:04.940Z,22.25
2023-01-17T13:36:11.583Z,22.24
2023-01-17T13:37:15.799Z,22.25
2023-01-17T13:38:20.020Z,22.24
2023-01-17T13:39:24.289Z,22.23
2023-01-17T13:40:29.612Z,22.24
2023-01-17T13:41:33.951Z,22.22
2023-01-17T13:42:38.255Z,22.22
2023-01-17T13:43:42.525Z,22.2
2023-01-17T13:44:46.768Z,22.2
2023-01-17T13:45:51.051Z,22.17
2023-01-17T13:46:55.584Z,22.15
2023-01-17T13:47:59.818Z,22.13
2023-01-17T13:49:04.094Z,22.09
2023-01-17T13:50:08.425Z,22.08
2023-01-17T13:51:12.847Z,22.06
2023-01-17T13:52:17.155Z,22.05